Wolf Creek Observed Data For Previous 48 Hours

Caption
Day and Hour Reservoir Elevation (behind dam)* Tailwater Elevation (below dam)* Average Hourly Discharge*
8/19/2018 1 AM CDT 714.48 546.28 20
8/19/2018 2 AM CDT 714.49 545.19 20
8/19/2018 3 AM CDT 714.50 544.20 20
8/19/2018 4 AM CDT 714.50 543.60 20
8/19/2018 5 AM CDT 714.50 543.20 20
8/19/2018 6 AM CDT 714.50 542.80 20
8/19/2018 7 AM CDT 714.51 542.61 20
8/19/2018 8 AM CDT 714.52 545.62 3,500
8/19/2018 9 AM CDT 714.53 546.53 3,510
8/19/2018 10 AM CDT 714.55 546.85 3,510
8/19/2018 11 AM CDT 714.56 546.96 3,510
8/19/2018 12 PM CDT 714.57 547.07 3,510
8/19/2018 1 PM CDT 714.56 547.16 3,520
8/19/2018 2 PM CDT 714.55 550.85 10,640
8/19/2018 3 PM CDT 714.54 555.14 18,120
8/19/2018 4 PM CDT 714.53 556.03 18,120
8/19/2018 5 PM CDT 714.52 556.72 18,370
8/19/2018 6 PM CDT 714.51 556.91 18,370
8/19/2018 7 PM CDT 714.50 557.10 18,570
8/19/2018 8 PM CDT 714.50 554.80 10,730
8/19/2018 9 PM CDT 714.49 551.69 3,570
8/19/2018 10 PM CDT 714.49 550.89 3,560
8/19/2018 11 PM CDT 714.48 550.38 3,560
8/20/2018 12 AM CDT 714.48 548.48 20
8/20/2018 1 AM CDT 714.50 546.90 20
8/20/2018 2 AM CDT 714.50 545.30 20
8/20/2018 3 AM CDT 714.52 544.42 20
8/20/2018 4 AM CDT 714.52 543.72 20
8/20/2018 5 AM CDT 714.54 543.24 20
8/20/2018 6 AM CDT 714.56 542.86 20
8/20/2018 7 AM CDT 714.56 546.26 3,510
8/20/2018 8 AM CDT 714.56 548.56 7,040
8/20/2018 9 AM CDT 714.56 549.46 7,080
8/20/2018 10 AM CDT 714.56 552.66 10,670
8/20/2018 11 AM CDT 714.54 553.74 14,310
8/20/2018 12 PM CDT 714.52 554.32 14,350
8/20/2018 1 PM CDT 714.51 554.51 14,350
8/20/2018 2 PM CDT 714.50 554.80 14,350
8/20/2018 3 PM CDT 714.48 555.08 14,550
8/20/2018 4 PM CDT 714.46 555.26 14,550
8/20/2018 5 PM CDT 714.44 555.44 14,500
8/20/2018 6 PM CDT 714.42 555.62 14,500
8/20/2018 7 PM CDT 714.40 555.70 14,500
8/20/2018 8 PM CDT 714.38 555.78 14,500
8/20/2018 9 PM CDT 714.38 555.78 14,500
8/20/2018 10 PM CDT 714.40 554.20 10,730
8/20/2018 11 PM CDT 714.40 550.80 3,560
8/21/2018 12 AM CDT 714.42 548.92 20

Elevations are in feet above sea level. Discharges are in cubic feet per second and are reported at the end of the hour.